sensor_id;sensor_type;location;lat;lon;timestamp;pressure;altitude;pressure_sealevel;temperature;humidity
72636;BME280;60679;48.888;15.544;2024-01-11T00:01:14;97281.41;;;-10.91;71.61
72636;BME280;60679;48.888;15.544;2024-01-11T00:03:40;97281.94;;;-11.03;71.80
72636;BME280;60679;48.888;15.544;2024-01-11T00:06:05;97284.03;;;-11.11;71.64
72636;BME280;60679;48.888;15.544;2024-01-11T00:08:31;97275.84;;;-11.22;71.72
72636;BME280;60679;48.888;15.544;2024-01-11T00:10:56;97279.66;;;-11.29;71.91
72636;BME280;60679;48.888;15.544;2024-01-11T00:13:22;97275.13;;;-11.26;72.13
72636;BME280;60679;48.888;15.544;2024-01-11T00:15:47;97278.53;;;-11.24;72.06
72636;BME280;60679;48.888;15.544;2024-01-11T00:18:12;97282.81;;;-11.23;71.79
72636;BME280;60679;48.888;15.544;2024-01-11T00:20:38;97276.75;;;-11.23;71.67
72636;BME280;60679;48.888;15.544;2024-01-11T00:23:03;97275.34;;;-11.30;71.55
72636;BME280;60679;48.888;15.544;2024-01-11T00:25:28;97277.94;;;-11.50;71.72
72636;BME280;60679;48.888;15.544;2024-01-11T00:27:54;97278.94;;;-11.53;72.03
72636;BME280;60679;48.888;15.544;2024-01-11T00:30:19;97283.94;;;-11.48;71.89
72636;BME280;60679;48.888;15.544;2024-01-11T00:32:45;97266.53;;;-11.48;72.16
72636;BME280;60679;48.888;15.544;2024-01-11T00:35:10;97271.63;;;-11.45;71.90
72636;BME280;60679;48.888;15.544;2024-01-11T00:37:35;97274.06;;;-11.40;72.16
72636;BME280;60679;48.888;15.544;2024-01-11T00:40:01;97270.34;;;-11.35;72.02
72636;BME280;60679;48.888;15.544;2024-01-11T00:42:26;97272.00;;;-11.34;72.14
72636;BME280;60679;48.888;15.544;2024-01-11T00:44:52;97269.34;;;-11.32;71.77
72636;BME280;60679;48.888;15.544;2024-01-11T00:47:17;97262.44;;;-11.33;72.10
72636;BME280;60679;48.888;15.544;2024-01-11T00:49:42;97261.84;;;-11.40;72.02
72636;BME280;60679;48.888;15.544;2024-01-11T00:52:08;97256.84;;;-11.44;71.74
72636;BME280;60679;48.888;15.544;2024-01-11T00:54:35;97258.72;;;-11.48;71.71
72636;BME280;60679;48.888;15.544;2024-01-11T00:57:00;97258.56;;;-11.43;72.03
72636;BME280;60679;48.888;15.544;2024-01-11T00:59:26;97259.13;;;-11.37;71.97
72636;BME280;60679;48.888;15.544;2024-01-11T01:01:51;97268.13;;;-11.44;71.89
72636;BME280;60679;48.888;15.544;2024-01-11T01:04:16;97260.78;;;-11.54;72.00
72636;BME280;60679;48.888;15.544;2024-01-11T01:06:42;97258.94;;;-11.52;72.32
72636;BME280;60679;48.888;15.544;2024-01-11T01:09:08;97268.16;;;-11.45;72.00
72636;BME280;60679;48.888;15.544;2024-01-11T01:11:33;97266.69;;;-11.51;71.75
72636;BME280;60679;48.888;15.544;2024-01-11T01:13:58;97262.72;;;-11.59;71.70
72636;BME280;60679;48.888;15.544;2024-01-11T01:16:24;97274.19;;;-11.63;72.08
72636;BME280;60679;48.888;15.544;2024-01-11T01:18:49;97274.59;;;-11.72;71.80
72636;BME280;60679;48.888;15.544;2024-01-11T01:21:15;97278.28;;;-11.98;71.31
72636;BME280;60679;48.888;15.544;2024-01-11T01:23:40;97276.66;;;-12.22;71.38
72636;BME280;60679;48.888;15.544;2024-01-11T01:26:06;97283.91;;;-12.09;72.05
72636;BME280;60679;48.888;15.544;2024-01-11T01:28:32;97286.84;;;-11.96;72.00
72636;BME280;60679;48.888;15.544;2024-01-11T01:30:57;97284.31;;;-11.98;71.59
72636;BME280;60679;48.888;15.544;2024-01-11T01:33:23;97281.03;;;-12.23;71.58
72636;BME280;60679;48.888;15.544;2024-01-11T01:35:48;97272.63;;;-12.51;71.40
72636;BME280;60679;48.888;15.544;2024-01-11T01:38:14;97261.25;;;-12.70;71.38
72636;BME280;60679;48.888;15.544;2024-01-11T01:40:39;97268.84;;;-12.66;71.97
72636;BME280;60679;48.888;15.544;2024-01-11T01:43:07;97273.69;;;-12.35;72.14
72636;BME280;60679;48.888;15.544;2024-01-11T01:45:34;97273.22;;;-12.23;72.09
72636;BME280;60679;48.888;15.544;2024-01-11T01:47:59;97279.41;;;-12.25;71.73
72636;BME280;60679;48.888;15.544;2024-01-11T01:50:25;97276.91;;;-12.28;71.63
72636;BME280;60679;48.888;15.544;2024-01-11T01:52:51;97277.94;;;-12.32;71.77
72636;BME280;60679;48.888;15.544;2024-01-11T01:55:17;97282.34;;;-12.35;71.97
72636;BME280;60679;48.888;15.544;2024-01-11T01:57:45;97273.34;;;-12.48;71.23
72636;BME280;60679;48.888;15.544;2024-01-11T02:00:12;97267.53;;;-12.54;71.62
72636;BME280;60679;48.888;15.544;2024-01-11T02:02:46;97255.97;;;-12.47;71.67
72636;BME280;60679;48.888;15.544;2024-01-11T02:05:18;97266.25;;;-12.44;71.96
72636;BME280;60679;48.888;15.544;2024-01-11T02:07:44;97261.13;;;-12.46;72.18
72636;BME280;60679;48.888;15.544;2024-01-11T02:10:10;97257.31;;;-12.59;71.78
72636;BME280;60679;48.888;15.544;2024-01-11T02:12:36;97261.41;;;-12.75;71.48
72636;BME280;60679;48.888;15.544;2024-01-11T02:15:04;97254.75;;;-12.82;71.86
72636;BME280;60679;48.888;15.544;2024-01-11T02:17:33;97260.53;;;-12.75;72.02
72636;BME280;60679;48.888;15.544;2024-01-11T02:19:59;97257.72;;;-12.69;71.94
72636;BME280;60679;48.888;15.544;2024-01-11T02:22:36;97256.41;;;-12.58;71.92
72636;BME280;60679;48.888;15.544;2024-01-11T02:25:03;97253.19;;;-12.43;72.04
72636;BME280;60679;48.888;15.544;2024-01-11T02:27:29;97233.84;;;-12.36;72.17
72636;BME280;60679;48.888;15.544;2024-01-11T02:29:54;97238.38;;;-12.41;72.01
72636;BME280;60679;48.888;15.544;2024-01-11T02:32:20;97233.78;;;-12.34;72.07
72636;BME280;60679;48.888;15.544;2024-01-11T02:34:46;97231.00;;;-12.29;72.06
72636;BME280;60679;48.888;15.544;2024-01-11T02:37:11;97227.25;;;-12.22;72.17
72636;BME280;60679;48.888;15.544;2024-01-11T02:39:37;97227.81;;;-12.16;71.87
72636;BME280;60679;48.888;15.544;2024-01-11T02:42:03;97224.53;;;-12.19;71.87
72636;BME280;60679;48.888;15.544;2024-01-11T02:44:29;97228.50;;;-12.32;71.52
72636;BME280;60679;48.888;15.544;2024-01-11T02:46:54;97221.91;;;-12.41;72.01
72636;BME280;60679;48.888;15.544;2024-01-11T02:49:19;97214.66;;;-12.33;71.90
72636;BME280;60679;48.888;15.544;2024-01-11T02:51:45;97212.84;;;-12.31;71.77
72636;BME280;60679;48.888;15.544;2024-01-11T02:54:10;97207.66;;;-12.31;71.74
72636;BME280;60679;48.888;15.544;2024-01-11T02:56:35;97217.69;;;-12.22;72.31
72636;BME280;60679;48.888;15.544;2024-01-11T02:59:01;97215.50;;;-12.11;72.17
72636;BME280;60679;48.888;15.544;2024-01-11T03:01:26;97214.50;;;-12.08;72.12
72636;BME280;60679;48.888;15.544;2024-01-11T03:03:52;97210.28;;;-12.11;72.16
72636;BME280;60679;48.888;15.544;2024-01-11T03:06:18;97192.84;;;-12.09;71.84
72636;BME280;60679;48.888;15.544;2024-01-11T03:08:47;97195.50;;;-12.10;72.24
72636;BME280;60679;48.888;15.544;2024-01-11T03:11:13;97194.72;;;-12.12;71.82
72636;BME280;60679;48.888;15.544;2024-01-11T03:13:38;97191.22;;;-12.11;72.04
72636;BME280;60679;48.888;15.544;2024-01-11T03:16:04;97197.41;;;-12.14;71.83
72636;BME280;60679;48.888;15.544;2024-01-11T03:18:30;97189.69;;;-12.37;71.45
72636;BME280;60679;48.888;15.544;2024-01-11T03:20:56;97194.00;;;-12.58;72.10
72636;BME280;60679;48.888;15.544;2024-01-11T03:23:22;97187.38;;;-12.65;71.75
72636;BME280;60679;48.888;15.544;2024-01-11T03:25:47;97186.75;;;-12.71;71.91
72636;BME280;60679;48.888;15.544;2024-01-11T03:28:12;97178.31;;;-12.76;72.08
72636;BME280;60679;48.888;15.544;2024-01-11T03:30:38;97175.75;;;-12.78;72.21
72636;BME280;60679;48.888;15.544;2024-01-11T03:33:04;97172.00;;;-12.71;71.90
72636;BME280;60679;48.888;15.544;2024-01-11T03:35:29;97167.88;;;-12.55;72.27
72636;BME280;60679;48.888;15.544;2024-01-11T03:37:54;97173.50;;;-12.44;72.01
72636;BME280;60679;48.888;15.544;2024-01-11T03:40:20;97176.44;;;-12.31;72.14
72636;BME280;60679;48.888;15.544;2024-01-11T03:42:45;97175.50;;;-12.30;71.95
72636;BME280;60679;48.888;15.544;2024-01-11T03:45:10;97180.31;;;-12.41;71.91
72636;BME280;60679;48.888;15.544;2024-01-11T03:47:36;97162.75;;;-12.56;71.88
72636;BME280;60679;48.888;15.544;2024-01-11T03:50:01;97150.03;;;-12.64;72.06
72636;BME280;60679;48.888;15.544;2024-01-11T03:52:27;97154.56;;;-12.47;72.07
72636;BME280;60679;48.888;15.544;2024-01-11T03:54:52;97150.47;;;-12.32;72.46
72636;BME280;60679;48.888;15.544;2024-01-11T03:57:18;97155.66;;;-12.11;72.45
72636;BME280;60679;48.888;15.544;2024-01-11T03:59:43;97155.91;;;-11.97;72.25
72636;BME280;60679;48.888;15.544;2024-01-11T04:02:10;97155.38;;;-12.05;72.21
72636;BME280;60679;48.888;15.544;2024-01-11T04:04:35;97161.63;;;-12.09;72.26
72636;BME280;60679;48.888;15.544;2024-01-11T04:07:01;97160.53;;;-12.03;71.99
72636;BME280;60679;48.888;15.544;2024-01-11T04:09:26;97164.81;;;-12.02;72.30
72636;BME280;60679;48.888;15.544;2024-01-11T04:11:51;97164.41;;;-12.13;71.79
72636;BME280;60679;48.888;15.544;2024-01-11T04:14:17;97171.03;;;-12.26;71.89
72636;BME280;60679;48.888;15.544;2024-01-11T04:16:42;97169.78;;;-12.38;71.95
72636;BME280;60679;48.888;15.544;2024-01-11T04:19:08;97169.69;;;-12.57;71.65
72636;BME280;60679;48.888;15.544;2024-01-11T04:21:33;97163.25;;;-12.68;72.06
72636;BME280;60679;48.888;15.544;2024-01-11T04:23:59;97164.09;;;-12.68;71.98
72636;BME280;60679;48.888;15.544;2024-01-11T04:26:27;97171.38;;;-12.56;72.54
72636;BME280;60679;48.888;15.544;2024-01-11T04:28:53;97183.88;;;-12.44;72.31
72636;BME280;60679;48.888;15.544;2024-01-11T04:31:18;97187.09;;;-12.37;72.15
72636;BME280;60679;48.888;15.544;2024-01-11T04:33:44;97181.03;;;-12.38;71.90
72636;BME280;60679;48.888;15.544;2024-01-11T04:36:10;97175.97;;;-12.41;72.19
72636;BME280;60679;48.888;15.544;2024-01-11T04:38:36;97179.66;;;-12.46;72.21
72636;BME280;60679;48.888;15.544;2024-01-11T04:41:11;97190.19;;;-12.49;72.19
72636;BME280;60679;48.888;15.544;2024-01-11T04:43:43;97191.75;;;-12.45;72.39
72636;BME280;60679;48.888;15.544;2024-01-11T04:46:20;97201.13;;;-12.41;72.11
72636;BME280;60679;48.888;15.544;2024-01-11T04:48:46;97191.53;;;-12.39;72.30
72636;BME280;60679;48.888;15.544;2024-01-11T04:51:12;97198.41;;;-12.38;72.04
72636;BME280;60679;48.888;15.544;2024-01-11T04:53:39;97195.91;;;-12.41;72.08
72636;BME280;60679;48.888;15.544;2024-01-11T04:56:06;97197.00;;;-12.47;71.98
72636;BME280;60679;48.888;15.544;2024-01-11T04:58:33;97194.66;;;-12.53;72.20
72636;BME280;60679;48.888;15.544;2024-01-11T05:00:58;97181.34;;;-12.67;71.89
72636;BME280;60679;48.888;15.544;2024-01-11T05:03:23;97180.91;;;-12.76;71.83
72636;BME280;60679;48.888;15.544;2024-01-11T05:05:49;97196.53;;;-12.78;72.26
72636;BME280;60679;48.888;15.544;2024-01-11T05:08:14;97191.34;;;-12.78;72.07
72636;BME280;60679;48.888;15.544;2024-01-11T05:10:39;97188.97;;;-12.84;71.95
72636;BME280;60679;48.888;15.544;2024-01-11T05:13:05;97187.34;;;-12.86;72.34
72636;BME280;60679;48.888;15.544;2024-01-11T05:15:30;97186.34;;;-12.82;72.25
72636;BME280;60679;48.888;15.544;2024-01-11T05:17:55;97176.59;;;-12.77;72.36
72636;BME280;60679;48.888;15.544;2024-01-11T05:20:23;97188.25;;;-12.66;72.26
72636;BME280;60679;48.888;15.544;2024-01-11T05:22:49;97183.91;;;-12.65;71.90
72636;BME280;60679;48.888;15.544;2024-01-11T05:25:14;97192.03;;;-12.73;72.00
72636;BME280;60679;48.888;15.544;2024-01-11T05:27:40;97180.78;;;-12.73;72.12
72636;BME280;60679;48.888;15.544;2024-01-11T05:30:06;97192.19;;;-12.77;72.21
72636;BME280;60679;48.888;15.544;2024-01-11T05:32:32;97171.41;;;-12.77;72.07
72636;BME280;60679;48.888;15.544;2024-01-11T05:34:57;97177.25;;;-12.72;72.37
72636;BME280;60679;48.888;15.544;2024-01-11T05:37:22;97167.53;;;-12.67;72.18
72636;BME280;60679;48.888;15.544;2024-01-11T05:39:48;97170.78;;;-12.62;72.28
72636;BME280;60679;48.888;15.544;2024-01-11T05:42:13;97172.44;;;-12.60;72.43
72636;BME280;60679;48.888;15.544;2024-01-11T05:44:38;97166.38;;;-12.60;72.03
72636;BME280;60679;48.888;15.544;2024-01-11T05:47:04;97168.06;;;-12.59;72.27
72636;BME280;60679;48.888;15.544;2024-01-11T05:49:29;97162.56;;;-12.52;72.32
72636;BME280;60679;48.888;15.544;2024-01-11T05:51:55;97155.38;;;-12.45;72.28
72636;BME280;60679;48.888;15.544;2024-01-11T05:54:20;97161.13;;;-12.39;72.26
72636;BME280;60679;48.888;15.544;2024-01-11T05:56:45;97164.41;;;-12.33;72.28
72636;BME280;60679;48.888;15.544;2024-01-11T05:59:11;97178.91;;;-12.28;72.17
72636;BME280;60679;48.888;15.544;2024-01-11T06:01:42;97186.66;;;-12.26;72.46
72636;BME280;60679;48.888;15.544;2024-01-11T06:04:08;97182.81;;;-12.18;72.83
72636;BME280;60679;48.888;15.544;2024-01-11T06:06:33;97184.16;;;-12.29;72.19
72636;BME280;60679;48.888;15.544;2024-01-11T06:08:58;97187.66;;;-12.51;71.95
72636;BME280;60679;48.888;15.544;2024-01-11T06:11:24;97192.69;;;-12.68;72.03
72636;BME280;60679;48.888;15.544;2024-01-11T06:13:49;97194.88;;;-12.79;72.06
72636;BME280;60679;48.888;15.544;2024-01-11T06:16:15;97201.97;;;-12.84;72.37
72636;BME280;60679;48.888;15.544;2024-01-11T06:18:40;97210.13;;;-12.93;71.97
72636;BME280;60679;48.888;15.544;2024-01-11T06:21:06;97216.47;;;-13.00;72.16
72636;BME280;60679;48.888;15.544;2024-01-11T06:23:31;97223.66;;;-13.07;72.06
72636;BME280;60679;48.888;15.544;2024-01-11T06:25:56;97237.88;;;-13.15;71.79
72636;BME280;60679;48.888;15.544;2024-01-11T06:28:22;97232.28;;;-13.28;72.00
72636;BME280;60679;48.888;15.544;2024-01-11T06:30:47;97216.63;;;-13.49;71.91
72636;BME280;60679;48.888;15.544;2024-01-11T06:33:12;97208.16;;;-13.55;72.26
72636;BME280;60679;48.888;15.544;2024-01-11T06:35:38;97226.50;;;-13.36;72.19
72636;BME280;60679;48.888;15.544;2024-01-11T06:38:03;97217.22;;;-13.18;72.46
72636;BME280;60679;48.888;15.544;2024-01-11T06:40:29;97212.72;;;-13.15;72.04
72636;BME280;60679;48.888;15.544;2024-01-11T06:42:54;97220.47;;;-13.13;71.93
72636;BME280;60679;48.888;15.544;2024-01-11T06:45:19;97214.06;;;-13.05;72.07
72636;BME280;60679;48.888;15.544;2024-01-11T06:47:45;97212.06;;;-12.98;72.28
72636;BME280;60679;48.888;15.544;2024-01-11T06:50:14;97222.06;;;-12.87;72.14
72636;BME280;60679;48.888;15.544;2024-01-11T06:52:39;97221.69;;;-12.78;72.01
72636;BME280;60679;48.888;15.544;2024-01-11T06:55:05;97218.50;;;-12.63;71.72
72636;BME280;60679;48.888;15.544;2024-01-11T06:57:31;97216.31;;;-12.30;71.14
72636;BME280;60679;48.888;15.544;2024-01-11T06:59:56;97213.59;;;-12.07;70.69
72636;BME280;60679;48.888;15.544;2024-01-11T07:02:22;97217.28;;;-11.34;69.80
72636;BME280;60679;48.888;15.544;2024-01-11T07:04:47;97210.41;;;-10.24;68.10
72636;BME280;60679;48.888;15.544;2024-01-11T07:07:12;97209.03;;;-9.46;66.39
72636;BME280;60679;48.888;15.544;2024-01-11T07:09:38;97198.34;;;-8.77;65.33
72636;BME280;60679;48.888;15.544;2024-01-11T07:12:04;97203.41;;;-7.97;63.83
72636;BME280;60679;48.888;15.544;2024-01-11T07:14:30;97201.31;;;-7.33;62.61
72636;BME280;60679;48.888;15.544;2024-01-11T07:16:55;97201.44;;;-6.78;61.90
72636;BME280;60679;48.888;15.544;2024-01-11T07:19:20;97200.81;;;-6.40;61.01
72636;BME280;60679;48.888;15.544;2024-01-11T07:21:46;97205.28;;;-6.69;61.38
72636;BME280;60679;48.888;15.544;2024-01-11T07:24:11;97213.53;;;-6.89;61.66
72636;BME280;60679;48.888;15.544;2024-01-11T07:26:39;97221.00;;;-7.70;63.32
72636;BME280;60679;48.888;15.544;2024-01-11T07:29:05;97227.31;;;-8.49;64.75
72636;BME280;60679;48.888;15.544;2024-01-11T07:31:30;97228.56;;;-7.35;62.84
72636;BME280;60679;48.888;15.544;2024-01-11T07:33:56;97218.81;;;-5.04;58.78
72636;BME280;60679;48.888;15.544;2024-01-11T07:36:21;97209.97;;;-3.69;56.59
72636;BME280;60679;48.888;15.544;2024-01-11T07:38:47;97215.75;;;-2.72;55.19
72636;BME280;60679;48.888;15.544;2024-01-11T07:41:12;97218.97;;;-2.02;54.31
72636;BME280;60679;48.888;15.544;2024-01-11T07:43:39;97224.22;;;-1.48;53.36
72636;BME280;60679;48.888;15.544;2024-01-11T07:46:05;97217.16;;;-1.06;52.36
72636;BME280;60679;48.888;15.544;2024-01-11T07:48:31;97225.63;;;-0.71;51.85
72636;BME280;60679;48.888;15.544;2024-01-11T07:50:57;97225.94;;;-0.34;51.38
72636;BME280;60679;48.888;15.544;2024-01-11T07:53:23;97232.09;;;0.07;50.51
72636;BME280;60679;48.888;15.544;2024-01-11T07:55:48;97232.47;;;0.51;49.81
72636;BME280;60679;48.888;15.544;2024-01-11T07:58:14;97223.25;;;1.13;49.30
72636;BME280;60679;48.888;15.544;2024-01-11T08:00:40;97210.16;;;1.58;48.28
72636;BME280;60679;48.888;15.544;2024-01-11T08:03:05;97222.50;;;2.13;48.01
72636;BME280;60679;48.888;15.544;2024-01-11T08:05:31;97213.97;;;2.37;47.09
72636;BME280;60679;48.888;15.544;2024-01-11T08:07:56;97212.69;;;2.59;46.93
72636;BME280;60679;48.888;15.544;2024-01-11T08:10:22;97205.16;;;2.89;46.19
72636;BME280;60679;48.888;15.544;2024-01-11T08:12:47;97205.53;;;2.95;44.83
72636;BME280;60679;48.888;15.544;2024-01-11T08:15:12;97215.84;;;2.89;45.23
72636;BME280;60679;48.888;15.544;2024-01-11T08:17:43;97210.38;;;3.34;45.18
72636;BME280;60679;48.888;15.544;2024-01-11T08:20:10;97198.50;;;3.80;44.92
72636;BME280;60679;48.888;15.544;2024-01-11T08:22:39;97200.28;;;3.72;43.70
72636;BME280;60679;48.888;15.544;2024-01-11T08:25:05;97194.69;;;3.91;43.68
72636;BME280;60679;48.888;15.544;2024-01-11T08:27:33;97185.53;;;4.43;43.72
72636;BME280;60679;48.888;15.544;2024-01-11T08:29:59;97177.78;;;4.82;43.34
72636;BME280;60679;48.888;15.544;2024-01-11T08:32:27;97170.25;;;5.26;42.60
72636;BME280;60679;48.888;15.544;2024-01-11T08:34:53;97160.19;;;5.20;41.85
72636;BME280;60679;48.888;15.544;2024-01-11T08:37:18;97155.66;;;5.37;41.92
72636;BME280;60679;48.888;15.544;2024-01-11T08:39:43;97147.84;;;5.19;41.31
72636;BME280;60679;48.888;15.544;2024-01-11T08:42:11;97137.59;;;5.47;41.08
72636;BME280;60679;48.888;15.544;2024-01-11T08:44:41;97138.31;;;5.79;41.27
72636;BME280;60679;48.888;15.544;2024-01-11T08:47:06;97137.00;;;6.53;41.13
72636;BME280;60679;48.888;15.544;2024-01-11T08:49:31;97132.78;;;7.04;40.26
72636;BME280;60679;48.888;15.544;2024-01-11T08:51:58;97124.56;;;6.83;39.42
72636;BME280;60679;48.888;15.544;2024-01-11T08:54:23;97112.31;;;6.58;38.99
72636;BME280;60679;48.888;15.544;2024-01-11T08:56:48;97098.31;;;6.48;39.60
72636;BME280;60679;48.888;15.544;2024-01-11T08:59:14;97101.19;;;6.46;39.36
72636;BME280;60679;48.888;15.544;2024-01-11T09:01:39;97086.75;;;6.47;38.59
72636;BME280;60679;48.888;15.544;2024-01-11T09:04:04;97078.63;;;6.32;38.66
72636;BME280;60679;48.888;15.544;2024-01-11T09:06:30;97068.91;;;6.31;38.80
72636;BME280;60679;48.888;15.544;2024-01-11T09:08:56;97055.59;;;6.46;38.93
72636;BME280;60679;48.888;15.544;2024-01-11T09:11:21;97055.53;;;6.54;38.38
72636;BME280;60679;48.888;15.544;2024-01-11T09:13:47;97057.16;;;6.55;38.17
72636;BME280;60679;48.888;15.544;2024-01-11T09:16:18;97064.31;;;6.85;38.56
72636;BME280;60679;48.888;15.544;2024-01-11T09:18:44;97087.19;;;7.48;39.09
72636;BME280;60679;48.888;15.544;2024-01-11T09:21:10;97089.22;;;9.18;39.70
72636;BME280;60679;48.888;15.544;2024-01-11T09:23:35;97092.03;;;10.95;38.73
72636;BME280;60679;48.888;15.544;2024-01-11T09:26:01;97090.97;;;11.88;38.43
72636;BME280;60679;48.888;15.544;2024-01-11T09:28:26;97089.66;;;12.10;37.43
72636;BME280;60679;48.888;15.544;2024-01-11T09:30:52;97081.44;;;12.36;37.27
72636;BME280;60679;48.888;15.544;2024-01-11T09:33:17;97079.91;;;12.53;37.15
72636;BME280;60679;48.888;15.544;2024-01-11T09:35:42;97080.13;;;12.52;37.35
72636;BME280;60679;48.888;15.544;2024-01-11T09:38:08;97076.63;;;12.83;37.58
72636;BME280;60679;48.888;15.544;2024-01-11T09:40:33;97083.78;;;12.70;37.16
72636;BME280;60679;48.888;15.544;2024-01-11T09:43:02;97078.94;;;13.17;37.19
72636;BME280;60679;48.888;15.544;2024-01-11T09:45:29;97070.50;;;13.50;37.05
72636;BME280;60679;48.888;15.544;2024-01-11T09:47:54;97080.69;;;13.97;37.22
72636;BME280;60679;48.888;15.544;2024-01-11T09:50:21;97071.97;;;14.31;36.91
72636;BME280;60679;48.888;15.544;2024-01-11T09:52:48;97079.63;;;14.41;37.28
72636;BME280;60679;48.888;15.544;2024-01-11T09:55:14;97076.25;;;14.75;37.39
72636;BME280;60679;48.888;15.544;2024-01-11T09:57:44;97060.28;;;14.49;36.31
72636;BME280;60679;48.888;15.544;2024-01-11T10:00:13;97053.50;;;14.22;35.35
72636;BME280;60679;48.888;15.544;2024-01-11T10:02:39;97071.50;;;13.80;36.83
72636;BME280;60679;48.888;15.544;2024-01-11T10:05:05;97067.75;;;13.99;36.62
72636;BME280;60679;48.888;15.544;2024-01-11T10:07:32;97062.03;;;14.43;37.07
72636;BME280;60679;48.888;15.544;2024-01-11T10:09:58;97050.06;;;14.63;36.63
72636;BME280;60679;48.888;15.544;2024-01-11T10:12:24;97025.94;;;13.82;35.55
72636;BME280;60679;48.888;15.544;2024-01-11T10:14:53;97019.06;;;13.61;36.38
72636;BME280;60679;48.888;15.544;2024-01-11T10:17:19;97011.25;;;13.71;36.43
72636;BME280;60679;48.888;15.544;2024-01-11T10:19:45;97010.34;;;13.35;36.56
72636;BME280;60679;48.888;15.544;2024-01-11T10:22:11;97014.69;;;13.60;36.92
72636;BME280;60679;48.888;15.544;2024-01-11T10:24:42;97030.91;;;13.67;37.22
72636;BME280;60679;48.888;15.544;2024-01-11T10:27:10;97043.72;;;13.78;36.53
72636;BME280;60679;48.888;15.544;2024-01-11T10:29:36;97029.53;;;11.88;38.05
72636;BME280;60679;48.888;15.544;2024-01-11T10:32:05;97040.16;;;11.90;38.51
72636;BME280;60679;48.888;15.544;2024-01-11T10:34:31;97049.81;;;12.68;38.53
72636;BME280;60679;48.888;15.544;2024-01-11T10:36:56;97043.03;;;13.46;36.85
72636;BME280;60679;48.888;15.544;2024-01-11T10:39:25;97033.56;;;13.73;36.96
72636;BME280;60679;48.888;15.544;2024-01-11T10:41:52;97035.00;;;14.12;36.13
72636;BME280;60679;48.888;15.544;2024-01-11T10:44:21;97050.38;;;13.39;39.21
72636;BME280;60679;48.888;15.544;2024-01-11T10:46:48;97049.81;;;9.73;43.81
72636;BME280;60679;48.888;15.544;2024-01-11T10:49:18;97058.66;;;12.50;40.68
72636;BME280;60679;48.888;15.544;2024-01-11T10:51:59;97050.88;;;8.95;44.68
72636;BME280;60679;48.888;15.544;2024-01-11T10:54:26;97045.09;;;9.19;43.51
72636;BME280;60679;48.888;15.544;2024-01-11T10:56:53;97052.94;;;12.27;41.33
72636;BME280;60679;48.888;15.544;2024-01-11T10:59:21;97027.31;;;13.91;39.10
72636;BME280;60679;48.888;15.544;2024-01-11T11:01:52;97018.13;;;14.58;37.88
72636;BME280;60679;48.888;15.544;2024-01-11T11:04:20;97024.56;;;14.45;38.46
72636;BME280;60679;48.888;15.544;2024-01-11T11:06:49;97022.47;;;15.30;38.10
72636;BME280;60679;48.888;15.544;2024-01-11T11:09:17;97017.91;;;15.66;37.87
72636;BME280;60679;48.888;15.544;2024-01-11T11:11:42;97022.28;;;15.02;38.10
72636;BME280;60679;48.888;15.544;2024-01-11T11:14:09;97035.78;;;13.58;38.97
72636;BME280;60679;48.888;15.544;2024-01-11T11:16:35;97014.69;;;14.15;39.33
72636;BME280;60679;48.888;15.544;2024-01-11T11:19:01;97007.78;;;15.20;38.53
72636;BME280;60679;48.888;15.544;2024-01-11T11:21:26;97015.38;;;15.29;38.07
72636;BME280;60679;48.888;15.544;2024-01-11T11:23:52;97007.84;;;15.66;38.40
72636;BME280;60679;48.888;15.544;2024-01-11T11:26:17;97018.38;;;15.97;37.74
72636;BME280;60679;48.888;15.544;2024-01-11T11:28:46;97002.75;;;15.58;37.21
72636;BME280;60679;48.888;15.544;2024-01-11T11:31:37;96987.59;;;14.86;38.19
72636;BME280;60679;48.888;15.544;2024-01-11T11:34:04;96988.16;;;14.65;37.57
72636;BME280;60679;48.888;15.544;2024-01-11T11:36:30;96981.94;;;14.28;37.30
72636;BME280;60679;48.888;15.544;2024-01-11T11:38:56;96983.03;;;13.05;38.79
72636;BME280;60679;48.888;15.544;2024-01-11T11:41:26;96991.41;;;13.28;37.99
72636;BME280;60679;48.888;15.544;2024-01-11T11:43:52;96980.91;;;13.13;38.23
72636;BME280;60679;48.888;15.544;2024-01-11T11:46:18;96974.66;;;12.19;39.58
72636;BME280;60679;48.888;15.544;2024-01-11T11:48:49;96981.00;;;10.96;40.64
72636;BME280;60679;48.888;15.544;2024-01-11T11:51:17;96967.03;;;10.34;41.43
72636;BME280;60679;48.888;15.544;2024-01-11T11:53:43;96962.06;;;9.77;41.96
72636;BME280;60679;48.888;15.544;2024-01-11T11:56:10;96970.94;;;9.30;42.54
72636;BME280;60679;48.888;15.544;2024-01-11T11:58:36;96969.22;;;9.16;42.89
72636;BME280;60679;48.888;15.544;2024-01-11T12:01:03;96966.59;;;10.17;42.12
72636;BME280;60679;48.888;15.544;2024-01-11T12:03:32;96964.34;;;10.54;41.70
72636;BME280;60679;48.888;15.544;2024-01-11T12:05:59;96981.41;;;10.87;41.47
72636;BME280;60679;48.888;15.544;2024-01-11T12:08:25;96988.84;;;11.50;40.93
72636;BME280;60679;48.888;15.544;2024-01-11T12:10:51;96982.50;;;11.89;40.62
72636;BME280;60679;48.888;15.544;2024-01-11T12:13:17;96991.13;;;11.53;40.72
72636;BME280;60679;48.888;15.544;2024-01-11T12:15:42;96985.56;;;11.22;41.70
72636;BME280;60679;48.888;15.544;2024-01-11T12:18:08;96980.59;;;10.99;41.58
72636;BME280;60679;48.888;15.544;2024-01-11T12:20:33;96976.44;;;10.90;41.52
72636;BME280;60679;48.888;15.544;2024-01-11T12:22:59;96969.78;;;10.99;41.64
72636;BME280;60679;48.888;15.544;2024-01-11T12:25:25;96977.03;;;10.92;41.58
72636;BME280;60679;48.888;15.544;2024-01-11T12:27:50;96969.50;;;10.16;41.59
72636;BME280;60679;48.888;15.544;2024-01-11T12:30:22;96964.44;;;9.52;42.17
72636;BME280;60679;48.888;15.544;2024-01-11T12:32:47;96963.31;;;7.93;44.39
72636;BME280;60679;48.888;15.544;2024-01-11T12:35:13;96955.72;;;5.91;47.53
72636;BME280;60679;48.888;15.544;2024-01-11T12:37:38;96950.16;;;4.92;49.24
72636;BME280;60679;48.888;15.544;2024-01-11T12:40:04;96948.59;;;4.50;50.34